sensor_id;sensor_type;location;lat;lon;timestamp;pressure;altitude;pressure_sealevel;temperature;humidity
69836;BME280;57132;51.972;4.450;2023-05-02T00:01:56;102069.53;;;8.60;100.00
69836;BME280;57132;51.972;4.450;2023-05-02T00:04:22;102073.03;;;8.60;100.00
69836;BME280;57132;51.972;4.450;2023-05-02T00:06:48;102074.78;;;8.61;100.00
69836;BME280;57132;51.972;4.450;2023-05-02T00:09:13;102081.69;;;8.66;100.00
69836;BME280;57132;51.972;4.450;2023-05-02T00:11:39;102079.78;;;8.69;100.00
69836;BME280;57132;51.972;4.450;2023-05-02T00:14:05;102080.59;;;8.71;100.00
69836;BME280;57132;51.972;4.450;2023-05-02T00:16:30;102071.56;;;8.74;100.00
69836;BME280;57132;51.972;4.450;2023-05-02T00:18:55;102075.97;;;8.75;100.00
69836;BME280;57132;51.972;4.450;2023-05-02T00:21:21;102070.59;;;8.76;100.00
69836;BME280;57132;51.972;4.450;2023-05-02T00:23:46;102069.56;;;8.79;100.00
69836;BME280;57132;51.972;4.450;2023-05-02T00:26:11;102074.72;;;8.83;100.00
69836;BME280;57132;51.972;4.450;2023-05-02T00:28:37;102076.16;;;8.91;100.00
69836;BME280;57132;51.972;4.450;2023-05-02T00:31:03;102078.56;;;8.97;100.00
69836;BME280;57132;51.972;4.450;2023-05-02T00:33:29;102081.84;;;9.03;100.00
69836;BME280;57132;51.972;4.450;2023-05-02T00:35:54;102082.34;;;9.11;100.00
69836;BME280;57132;51.972;4.450;2023-05-02T00:38:19;102074.06;;;9.18;100.00
69836;BME280;57132;51.972;4.450;2023-05-02T00:40:46;102082.56;;;9.26;100.00
69836;BME280;57132;51.972;4.450;2023-05-02T00:43:13;102080.50;;;9.32;100.00
69836;BME280;57132;51.972;4.450;2023-05-02T00:45:39;102080.38;;;9.35;100.00
69836;BME280;57132;51.972;4.450;2023-05-02T00:48:06;102077.72;;;9.35;100.00
69836;BME280;57132;51.972;4.450;2023-05-02T00:50:37;102081.97;;;9.40;100.00
69836;BME280;57132;51.972;4.450;2023-05-02T00:53:05;102083.59;;;9.42;100.00
69836;BME280;57132;51.972;4.450;2023-05-02T00:55:31;102080.06;;;9.42;100.00
69836;BME280;57132;51.972;4.450;2023-05-02T00:57:58;102082.09;;;9.36;100.00
69836;BME280;57132;51.972;4.450;2023-05-02T01:00:31;102083.97;;;9.34;100.00
69836;BME280;57132;51.972;4.450;2023-05-02T01:03:11;102092.97;;;9.32;100.00
69836;BME280;57132;51.972;4.450;2023-05-02T01:05:48;102091.97;;;9.34;100.00
69836;BME280;57132;51.972;4.450;2023-05-02T01:08:35;102088.59;;;9.31;100.00
69836;BME280;57132;51.972;4.450;2023-05-02T01:11:27;102087.56;;;9.33;100.00
69836;BME280;57132;51.972;4.450;2023-05-02T01:13:58;102095.50;;;9.35;100.00
69836;BME280;57132;51.972;4.450;2023-05-02T01:16:26;102098.31;;;9.32;100.00
69836;BME280;57132;51.972;4.450;2023-05-02T01:18:53;102103.63;;;9.32;100.00
69836;BME280;57132;51.972;4.450;2023-05-02T01:21:19;102107.63;;;9.22;100.00
69836;BME280;57132;51.972;4.450;2023-05-02T01:24:09;102109.13;;;9.08;100.00
69836;BME280;57132;51.972;4.450;2023-05-02T01:26:45;102106.00;;;8.99;100.00
69836;BME280;57132;51.972;4.450;2023-05-02T01:29:13;102107.94;;;8.95;100.00
69836;BME280;57132;51.972;4.450;2023-05-02T01:31:41;102107.94;;;8.95;100.00
69836;BME280;57132;51.972;4.450;2023-05-02T01:34:09;102106.13;;;8.96;100.00
69836;BME280;57132;51.972;4.450;2023-05-02T01:36:35;102110.44;;;8.98;100.00
69836;BME280;57132;51.972;4.450;2023-05-02T01:39:03;102119.25;;;9.00;100.00
69836;BME280;57132;51.972;4.450;2023-05-02T01:41:32;102127.22;;;9.00;100.00
69836;BME280;57132;51.972;4.450;2023-05-02T01:44:01;102132.44;;;9.03;100.00
69836;BME280;57132;51.972;4.450;2023-05-02T01:46:32;102132.44;;;9.03;100.00
69836;BME280;57132;51.972;4.450;2023-05-02T01:49:01;102138.63;;;9.04;100.00
69836;BME280;57132;51.972;4.450;2023-05-02T01:51:31;102132.44;;;9.03;100.00
69836;BME280;57132;51.972;4.450;2023-05-02T01:53:59;102143.88;;;9.05;100.00
69836;BME280;57132;51.972;4.450;2023-05-02T01:56:27;102141.28;;;9.04;100.00
69836;BME280;57132;51.972;4.450;2023-05-02T01:58:55;102149.41;;;9.01;100.00
69836;BME280;57132;51.972;4.450;2023-05-02T02:01:23;102148.75;;;8.96;100.00
69836;BME280;57132;51.972;4.450;2023-05-02T02:03:53;102153.34;;;8.92;100.00
69836;BME280;57132;51.972;4.450;2023-05-02T02:06:20;102154.28;;;8.91;100.00
69836;BME280;57132;51.972;4.450;2023-05-02T02:08:46;102162.09;;;8.94;100.00
69836;BME280;57132;51.972;4.450;2023-05-02T02:11:12;102172.84;;;8.93;100.00
69836;BME280;57132;51.972;4.450;2023-05-02T02:13:45;102172.00;;;8.91;100.00
69836;BME280;57132;51.972;4.450;2023-05-02T02:16:18;102171.31;;;8.87;100.00
69836;BME280;57132;51.972;4.450;2023-05-02T02:18:46;102172.09;;;8.89;100.00
69836;BME280;57132;51.972;4.450;2023-05-02T02:21:15;102179.34;;;8.85;100.00
69836;BME280;57132;51.972;4.450;2023-05-02T02:23:42;102184.75;;;8.84;100.00
69836;BME280;57132;51.972;4.450;2023-05-02T02:26:12;102182.09;;;8.84;100.00
69836;BME280;57132;51.972;4.450;2023-05-02T02:28:38;102195.28;;;8.87;100.00
69836;BME280;57132;51.972;4.450;2023-05-02T02:31:04;102189.94;;;8.87;100.00
69836;BME280;57132;51.972;4.450;2023-05-02T02:33:30;102187.41;;;8.84;100.00
69836;BME280;57132;51.972;4.450;2023-05-02T02:36:30;102192.84;;;8.81;100.00
69836;BME280;57132;51.972;4.450;2023-05-02T02:39:26;102192.78;;;8.82;100.00
69836;BME280;57132;51.972;4.450;2023-05-02T02:42:03;102192.03;;;8.79;100.00
69836;BME280;57132;51.972;4.450;2023-05-02T02:44:42;102193.06;;;8.76;100.00
69836;BME280;57132;51.972;4.450;2023-05-02T02:47:12;102190.63;;;8.70;100.00
69836;BME280;57132;51.972;4.450;2023-05-02T02:49:59;102196.25;;;8.62;100.00
69836;BME280;57132;51.972;4.450;2023-05-02T02:52:43;102197.41;;;8.57;100.00
69836;BME280;57132;51.972;4.450;2023-05-02T02:55:23;102202.91;;;8.52;100.00
69836;BME280;57132;51.972;4.450;2023-05-02T02:58:01;102203.84;;;8.51;100.00
69836;BME280;57132;51.972;4.450;2023-05-02T03:00:28;102201.19;;;8.51;100.00
69836;BME280;57132;51.972;4.450;2023-05-02T03:02:56;102213.47;;;8.54;100.00
69836;BME280;57132;51.972;4.450;2023-05-02T03:05:22;102216.97;;;8.56;100.00
69836;BME280;57132;51.972;4.450;2023-05-02T03:07:48;102216.22;;;8.52;100.00
69836;BME280;57132;51.972;4.450;2023-05-02T03:10:14;102224.97;;;8.54;100.00
69836;BME280;57132;51.972;4.450;2023-05-02T03:12:39;102219.81;;;8.51;100.00
69836;BME280;57132;51.972;4.450;2023-05-02T03:15:29;102222.47;;;8.51;100.00
69836;BME280;57132;51.972;4.450;2023-05-02T03:18:06;102228.69;;;8.50;100.00
69836;BME280;57132;51.972;4.450;2023-05-02T03:20:31;102228.69;;;8.50;100.00
69836;BME280;57132;51.972;4.450;2023-05-02T03:22:56;102233.16;;;8.50;100.00
69836;BME280;57132;51.972;4.450;2023-05-02T03:25:22;102231.34;;;8.50;100.00
69836;BME280;57132;51.972;4.450;2023-05-02T03:27:47;102239.41;;;8.49;100.00
69836;BME280;57132;51.972;4.450;2023-05-02T03:30:12;102236.69;;;8.50;100.00
69836;BME280;57132;51.972;4.450;2023-05-02T03:32:37;102243.00;;;8.48;100.00
69836;BME280;57132;51.972;4.450;2023-05-02T03:35:03;102246.53;;;8.48;100.00
69836;BME280;57132;51.972;4.450;2023-05-02T03:37:28;102245.59;;;8.49;100.00
69836;BME280;57132;51.972;4.450;2023-05-02T03:39:54;102244.66;;;8.50;100.00
69836;BME280;57132;51.972;4.450;2023-05-02T03:42:20;102247.41;;;8.49;100.00
69836;BME280;57132;51.972;4.450;2023-05-02T03:44:45;102254.56;;;8.47;100.00
69836;BME280;57132;51.972;4.450;2023-05-02T03:47:11;102253.78;;;8.45;100.00
69836;BME280;57132;51.972;4.450;2023-05-02T03:49:38;102261.13;;;8.38;100.00
69836;BME280;57132;51.972;4.450;2023-05-02T03:52:03;102264.00;;;8.32;100.00
69836;BME280;57132;51.972;4.450;2023-05-02T03:54:31;102269.44;;;8.29;100.00
69836;BME280;57132;51.972;4.450;2023-05-02T03:56:56;102273.81;;;8.30;100.00
69836;BME280;57132;51.972;4.450;2023-05-02T03:59:22;102271.16;;;8.30;100.00
69836;BME280;57132;51.972;4.450;2023-05-02T04:01:48;102270.34;;;8.28;100.00
69836;BME280;57132;51.972;4.450;2023-05-02T04:04:14;102265.84;;;8.30;100.00
69836;BME280;57132;51.972;4.450;2023-05-02T04:06:40;102278.34;;;8.28;100.00
69836;BME280;57132;51.972;4.450;2023-05-02T04:09:06;102274.06;;;8.24;100.00
69836;BME280;57132;51.972;4.450;2023-05-02T04:11:31;102282.84;;;8.26;100.00
69836;BME280;57132;51.972;4.450;2023-05-02T04:13:57;102288.25;;;8.23;100.00
69836;BME280;57132;51.972;4.450;2023-05-02T04:16:22;102294.69;;;8.17;100.00
69836;BME280;57132;51.972;4.450;2023-05-02T04:18:47;102289.56;;;8.12;100.00
69836;BME280;57132;51.972;4.450;2023-05-02T04:21:12;102296.72;;;8.10;100.00
69836;BME280;57132;51.972;4.450;2023-05-02T04:23:38;102292.44;;;8.06;100.00
69836;BME280;57132;51.972;4.450;2023-05-02T04:26:04;102303.13;;;8.05;100.00
69836;BME280;57132;51.972;4.450;2023-05-02T04:28:29;102303.06;;;8.06;100.00
69836;BME280;57132;51.972;4.450;2023-05-02T04:30:55;102305.63;;;8.09;100.00
69836;BME280;57132;51.972;4.450;2023-05-02T04:33:21;102304.56;;;8.13;100.00
69836;BME280;57132;51.972;4.450;2023-05-02T04:35:47;102315.91;;;8.19;100.00
69836;BME280;57132;51.972;4.450;2023-05-02T04:38:13;102314.06;;;8.21;100.00
69836;BME280;57132;51.972;4.450;2023-05-02T04:40:38;102325.41;;;8.26;100.00
69836;BME280;57132;51.972;4.450;2023-05-02T04:43:04;102330.72;;;8.26;100.00
69836;BME280;57132;51.972;4.450;2023-05-02T04:45:29;102332.53;;;8.25;100.00
69836;BME280;57132;51.972;4.450;2023-05-02T04:47:55;102323.56;;;8.28;100.00
69836;BME280;57132;51.972;4.450;2023-05-02T04:50:20;102339.53;;;8.28;100.00
69836;BME280;57132;51.972;4.450;2023-05-02T04:52:46;102333.38;;;8.26;100.00
69836;BME280;57132;51.972;4.450;2023-05-02T04:55:11;102339.53;;;8.28;100.00
69836;BME280;57132;51.972;4.450;2023-05-02T04:57:38;102343.91;;;8.29;100.00
69836;BME280;57132;51.972;4.450;2023-05-02T05:00:04;102340.31;;;8.30;100.00
69836;BME280;57132;51.972;4.450;2023-05-02T05:02:30;102338.50;;;8.32;100.00
69836;BME280;57132;51.972;4.450;2023-05-02T05:04:55;102337.56;;;8.33;100.00
69836;BME280;57132;51.972;4.450;2023-05-02T05:07:21;102340.81;;;8.41;100.00
69836;BME280;57132;51.972;4.450;2023-05-02T05:09:46;102349.38;;;8.49;100.00
69836;BME280;57132;51.972;4.450;2023-05-02T05:12:11;102354.34;;;8.58;100.00
69836;BME280;57132;51.972;4.450;2023-05-02T05:14:38;102354.31;;;8.60;100.00
69836;BME280;57132;51.972;4.450;2023-05-02T05:17:03;102362.34;;;8.58;100.00
69836;BME280;57132;51.972;4.450;2023-05-02T05:19:29;102367.72;;;8.57;100.00
69836;BME280;57132;51.972;4.450;2023-05-02T05:21:54;102362.63;;;8.51;100.00
69836;BME280;57132;51.972;4.450;2023-05-02T05:24:19;102371.72;;;8.45;100.00
69836;BME280;57132;51.972;4.450;2023-05-02T05:26:45;102367.38;;;8.43;100.00
69836;BME280;57132;51.972;4.450;2023-05-02T05:29:11;102380.66;;;8.43;100.00
69836;BME280;57132;51.972;4.450;2023-05-02T05:31:36;102378.94;;;8.42;100.00
69836;BME280;57132;51.972;4.450;2023-05-02T05:34:01;102380.75;;;8.41;100.00
69836;BME280;57132;51.972;4.450;2023-05-02T05:36:28;102384.16;;;8.45;100.00
69836;BME280;57132;51.972;4.450;2023-05-02T05:38:54;102382.44;;;8.44;100.00
69836;BME280;57132;51.972;4.450;2023-05-02T05:41:21;102396.31;;;8.52;100.00
69836;BME280;57132;51.972;4.450;2023-05-02T05:43:46;102402.22;;;8.60;100.00
69836;BME280;57132;51.972;4.450;2023-05-02T05:46:11;102408.44;;;8.59;100.00
69836;BME280;57132;51.972;4.450;2023-05-02T05:48:37;102414.53;;;8.62;100.00
69836;BME280;57132;51.972;4.450;2023-05-02T05:51:05;102417.34;;;8.58;100.00
69836;BME280;57132;51.972;4.450;2023-05-02T05:53:31;102415.56;;;8.58;100.00
69836;BME280;57132;51.972;4.450;2023-05-02T05:55:56;102426.34;;;8.55;100.00
69836;BME280;57132;51.972;4.450;2023-05-02T05:58:22;102419.75;;;8.66;100.00
69836;BME280;57132;51.972;4.450;2023-05-02T06:00:47;102425.94;;;8.66;100.00
69836;BME280;57132;51.972;4.450;2023-05-02T06:03:13;102437.13;;;8.76;100.00
69836;BME280;57132;51.972;4.450;2023-05-02T06:05:38;102438.38;;;8.89;100.00
69836;BME280;57132;51.972;4.450;2023-05-02T06:08:04;102441.38;;;9.03;100.00
69836;BME280;57132;51.972;4.450;2023-05-02T06:10:30;102447.50;;;9.05;100.00
69836;BME280;57132;51.972;4.450;2023-05-02T06:12:56;102453.28;;;9.17;100.00
69836;BME280;57132;51.972;4.450;2023-05-02T06:15:24;102444.59;;;9.35;100.00
69836;BME280;57132;51.972;4.450;2023-05-02T06:17:50;102446.75;;;9.47;100.00
69836;BME280;57132;51.972;4.450;2023-05-02T06:20:16;102455.03;;;9.61;100.00
69836;BME280;57132;51.972;4.450;2023-05-02T06:22:41;102457.81;;;10.02;100.00
69836;BME280;57132;51.972;4.450;2023-05-02T06:25:07;102466.78;;;10.81;100.00
69836;BME280;57132;51.972;4.450;2023-05-02T06:27:33;102467.53;;;12.65;100.00
69836;BME280;57132;51.972;4.450;2023-05-02T06:29:58;102466.44;;;14.25;96.07
69836;BME280;57132;51.972;4.450;2023-05-02T06:32:24;102472.69;;;14.40;88.34
69836;BME280;57132;51.972;4.450;2023-05-02T06:34:50;102469.47;;;13.27;86.75
69836;BME280;57132;51.972;4.450;2023-05-02T06:37:16;102479.88;;;11.80;94.95
69836;BME280;57132;51.972;4.450;2023-05-02T06:39:41;102483.28;;;11.10;100.00
69836;BME280;57132;51.972;4.450;2023-05-02T06:42:06;102483.97;;;10.55;100.00
69836;BME280;57132;51.972;4.450;2023-05-02T06:44:32;102488.84;;;9.83;100.00
69836;BME280;57132;51.972;4.450;2023-05-02T06:46:57;102495.34;;;9.54;100.00
69836;BME280;57132;51.972;4.450;2023-05-02T06:49:22;102499.56;;;9.59;100.00
69836;BME280;57132;51.972;4.450;2023-05-02T06:51:48;102495.47;;;9.51;100.00
69836;BME280;57132;51.972;4.450;2023-05-02T06:54:13;102504.03;;;9.59;100.00
69836;BME280;57132;51.972;4.450;2023-05-02T06:56:40;102499.88;;;9.74;100.00
69836;BME280;57132;51.972;4.450;2023-05-02T06:59:05;102511.41;;;9.96;100.00
69836;BME280;57132;51.972;4.450;2023-05-02T07:01:31;102509.06;;;10.09;100.00
69836;BME280;57132;51.972;4.450;2023-05-02T07:03:56;102519.47;;;10.37;100.00
69836;BME280;57132;51.972;4.450;2023-05-02T07:06:22;102517.81;;;11.52;100.00
69836;BME280;57132;51.972;4.450;2023-05-02T07:08:48;102517.81;;;11.33;95.13
69836;BME280;57132;51.972;4.450;2023-05-02T07:11:13;102516.63;;;11.58;98.46
69836;BME280;57132;51.972;4.450;2023-05-02T07:13:39;102526.53;;;15.40;82.00
69836;BME280;57132;51.972;4.450;2023-05-02T07:16:05;102525.84;;;16.32;66.31
69836;BME280;57132;51.972;4.450;2023-05-02T07:18:30;102529.72;;;16.28;58.93
69836;BME280;57132;51.972;4.450;2023-05-02T07:20:56;102517.25;;;14.89;64.30
69836;BME280;57132;51.972;4.450;2023-05-02T07:23:21;102526.31;;;13.66;70.84
69836;BME280;57132;51.972;4.450;2023-05-02T07:25:47;102529.59;;;12.73;75.90
69836;BME280;57132;51.972;4.450;2023-05-02T07:28:12;102528.81;;;11.82;82.72
69836;BME280;57132;51.972;4.450;2023-05-02T07:30:37;102529.50;;;11.50;86.96
69836;BME280;57132;51.972;4.450;2023-05-02T07:33:03;102529.88;;;11.42;92.02
69836;BME280;57132;51.972;4.450;2023-05-02T07:35:28;102546.72;;;11.25;92.66
69836;BME280;57132;51.972;4.450;2023-05-02T07:37:54;102540.44;;;10.87;92.66
69836;BME280;57132;51.972;4.450;2023-05-02T07:40:19;102543.53;;;10.57;95.89
69836;BME280;57132;51.972;4.450;2023-05-02T07:42:44;102542.63;;;10.37;100.00
69836;BME280;57132;51.972;4.450;2023-05-02T07:45:11;102550.28;;;10.24;100.00
69836;BME280;57132;51.972;4.450;2023-05-02T07:47:36;102545.84;;;10.02;100.00
69836;BME280;57132;51.972;4.450;2023-05-02T07:50:02;102555.41;;;9.86;100.00
69836;BME280;57132;51.972;4.450;2023-05-02T07:52:28;102559.69;;;9.90;100.00
69836;BME280;57132;51.972;4.450;2023-05-02T07:54:54;102553.44;;;9.90;100.00
69836;BME280;57132;51.972;4.450;2023-05-02T07:57:19;102562.28;;;10.14;100.00
69836;BME280;57132;51.972;4.450;2023-05-02T07:59:45;102572.63;;;10.64;100.00
69836;BME280;57132;51.972;4.450;2023-05-02T08:02:10;102574.22;;;10.88;97.80
69836;BME280;57132;51.972;4.450;2023-05-02T08:04:38;102571.13;;;11.18;92.76
69836;BME280;57132;51.972;4.450;2023-05-02T08:07:03;102575.88;;;11.11;92.07
69836;BME280;57132;51.972;4.450;2023-05-02T08:09:29;102575.69;;;10.95;90.88
69836;BME280;57132;51.972;4.450;2023-05-02T08:11:55;102576.47;;;11.18;91.10
69836;BME280;57132;51.972;4.450;2023-05-02T08:14:20;102576.22;;;12.86;89.23
69836;BME280;57132;51.972;4.450;2023-05-02T08:16:46;102580.94;;;13.96;75.02
69836;BME280;57132;51.972;4.450;2023-05-02T08:19:11;102584.22;;;13.70;72.63
69836;BME280;57132;51.972;4.450;2023-05-02T08:21:37;102585.03;;;13.05;72.73
69836;BME280;57132;51.972;4.450;2023-05-02T08:24:02;102587.47;;;12.60;72.66
69836;BME280;57132;51.972;4.450;2023-05-02T08:26:28;102592.31;;;11.98;72.13
69836;BME280;57132;51.972;4.450;2023-05-02T08:28:54;102596.59;;;11.45;75.57
69836;BME280;57132;51.972;4.450;2023-05-02T08:31:20;102588.22;;;11.14;74.62
69836;BME280;57132;51.972;4.450;2023-05-02T08:33:45;102592.66;;;10.94;77.62
69836;BME280;57132;51.972;4.450;2023-05-02T08:36:12;102605.19;;;11.71;73.69
69836;BME280;57132;51.972;4.450;2023-05-02T08:38:38;102603.44;;;13.46;65.43
69836;BME280;57132;51.972;4.450;2023-05-02T08:41:11;102609.16;;;15.10;58.82
69836;BME280;57132;51.972;4.450;2023-05-02T08:43:38;102614.59;;;16.48;58.40
69836;BME280;57132;51.972;4.450;2023-05-02T08:46:04;102623.00;;;15.75;51.29
69836;BME280;57132;51.972;4.450;2023-05-02T08:48:32;102614.78;;;14.91;54.46
69836;BME280;57132;51.972;4.450;2023-05-02T08:51:00;102624.13;;;14.08;54.78
69836;BME280;57132;51.972;4.450;2023-05-02T08:53:27;102626.84;;;15.85;56.37
69836;BME280;57132;51.972;4.450;2023-05-02T08:55:53;102635.16;;;17.91;46.98
69836;BME280;57132;51.972;4.450;2023-05-02T08:58:20;102637.91;;;17.02;44.09
69836;BME280;57132;51.972;4.450;2023-05-02T09:00:47;102626.38;;;17.51;45.90
69836;BME280;57132;51.972;4.450;2023-05-02T09:05:41;102639.78;;;20.74;38.25
69836;BME280;57132;51.972;4.450;2023-05-02T09:08:07;102646.19;;;22.07;35.77
69836;BME280;57132;51.972;4.450;2023-05-02T09:10:36;102650.00;;;22.83;33.03
69836;BME280;57132;51.972;4.450;2023-05-02T09:13:27;102657.28;;;23.22;31.82
69836;BME280;57132;51.972;4.450;2023-05-02T09:16:00;102648.84;;;21.78;34.90
69836;BME280;57132;51.972;4.450;2023-05-02T09:18:27;102646.06;;;19.99;36.10
69836;BME280;57132;51.972;4.450;2023-05-02T09:20:53;102643.94;;;19.24;40.08
69836;BME280;57132;51.972;4.450;2023-05-02T09:23:18;102644.25;;;19.77;40.69
69836;BME280;57132;51.972;4.450;2023-05-02T09:25:44;102640.41;;;19.57;40.52
69836;BME280;57132;51.972;4.450;2023-05-02T09:28:10;102634.81;;;18.67;39.25
69836;BME280;57132;51.972;4.450;2023-05-02T09:30:36;102641.81;;;17.23;40.00
69836;BME280;57132;51.972;4.450;2023-05-02T09:33:01;102642.34;;;16.63;44.78
69836;BME280;57132;51.972;4.450;2023-05-02T09:35:26;102649.84;;;16.45;47.34
69836;BME280;57132;51.972;4.450;2023-05-02T09:37:56;102648.91;;;16.59;45.83
69836;BME280;57132;51.972;4.450;2023-05-02T09:40:22;102653.22;;;16.88;44.69
69836;BME280;57132;51.972;4.450;2023-05-02T09:42:48;102652.41;;;16.46;45.78
69836;BME280;57132;51.972;4.450;2023-05-02T09:45:22;102666.81;;;15.91;46.45
69836;BME280;57132;51.972;4.450;2023-05-02T09:47:49;102660.47;;;14.45;49.33
69836;BME280;57132;51.972;4.450;2023-05-02T09:50:37;102661.56;;;14.58;54.08
69836;BME280;57132;51.972;4.450;2023-05-02T09:53:04;102666.56;;;16.23;47.43
69836;BME280;57132;51.972;4.450;2023-05-02T09:55:30;102676.69;;;16.46;45.09
69836;BME280;57132;51.972;4.450;2023-05-02T09:57:56;102680.13;;;15.66;47.92
69836;BME280;57132;51.972;4.450;2023-05-02T10:00:21;102674.09;;;15.32;50.90
69836;BME280;57132;51.972;4.450;2023-05-02T10:02:48;102679.22;;;16.62;52.21
69836;BME280;57132;51.972;4.450;2023-05-02T10:05:15;102672.00;;;17.92;43.88
69836;BME280;57132;51.972;4.450;2023-05-02T10:07:43;102666.91;;;18.85;39.25
69836;BME280;57132;51.972;4.450;2023-05-02T10:10:13;102676.88;;;19.76;42.12
69836;BME280;57132;51.972;4.450;2023-05-02T10:12:41;102675.19;;;19.06;38.26
69836;BME280;57132;51.972;4.450;2023-05-02T10:15:08;102680.00;;;18.54;41.81
69836;BME280;57132;51.972;4.450;2023-05-02T10:17:47;102677.09;;;18.57;41.79
69836;BME280;57132;51.972;4.450;2023-05-02T10:20:19;102675.25;;;18.82;43.44
69836;BME280;57132;51.972;4.450;2023-05-02T10:22:48;102672.13;;;17.90;37.86
69836;BME280;57132;51.972;4.450;2023-05-02T10:25:16;102671.78;;;16.93;43.22
69836;BME280;57132;51.972;4.450;2023-05-02T10:27:42;102672.09;;;16.76;43.85
69836;BME280;57132;51.972;4.450;2023-05-02T10:30:08;102678.00;;;15.71;46.03
69836;BME280;57132;51.972;4.450;2023-05-02T10:32:36;102679.25;;;14.31;49.38
69836;BME280;57132;51.972;4.450;2023-05-02T10:35:04;102660.88;;;13.91;51.10
69836;BME280;57132;51.972;4.450;2023-05-02T10:37:32;102672.97;;;15.22;50.31
69836;BME280;57132;51.972;4.450;2023-05-02T10:39:59;102677.66;;;16.45;47.96
69836;BME280;57132;51.972;4.450;2023-05-02T10:42:25;102673.28;;;17.74;44.22
69836;BME280;57132;51.972;4.450;2023-05-02T10:44:51;102667.34;;;18.79;41.82
69836;BME280;57132;51.972;4.450;2023-05-02T10:49:58;102674.72;;;19.23;40.43
69836;BME280;57132;51.972;4.450;2023-05-02T10:52:34;102683.88;;;19.56;39.52
69836;BME280;57132;51.972;4.450;2023-05-02T10:55:17;102688.06;;;18.43;39.69
69836;BME280;57132;51.972;4.450;2023-05-02T11:00:22;102688.78;;;19.28;40.10
69836;BME280;57132;51.972;4.450;2023-05-02T11:02:50;102681.16;;;18.87;40.11
69836;BME280;57132;51.972;4.450;2023-05-02T11:05:16;102686.94;;;17.98;41.32
69836;BME280;57132;51.972;4.450;2023-05-02T11:07:44;102701.00;;;17.77;48.96
69836;BME280;57132;51.972;4.450;2023-05-02T11:12:47;102690.31;;;16.58;44.99
69836;BME280;57132;51.972;4.450;2023-05-02T11:18:07;102694.31;;;15.54;48.56
69836;BME280;57132;51.972;4.450;2023-05-02T11:20:34;102691.09;;;14.74;52.61
69836;BME280;57132;51.972;4.450;2023-05-02T11:23:18;102688.47;;;13.93;53.32
69836;BME280;57132;51.972;4.450;2023-05-02T11:25:56;102692.28;;;13.89;56.26
69836;BME280;57132;51.972;4.450;2023-05-02T11:31:06;102701.41;;;15.26;55.37
69836;BME280;57132;51.972;4.450;2023-05-02T11:33:34;102693.16;;;16.42;50.40
69836;BME280;57132;51.972;4.450;2023-05-02T11:35:59;102699.34;;;16.71;46.67
69836;BME280;57132;51.972;4.450;2023-05-02T11:38:27;102707.16;;;16.34;47.63
69836;BME280;57132;51.972;4.450;2023-05-02T11:40:59;102704.63;;;15.61;51.06
69836;BME280;57132;51.972;4.450;2023-05-02T11:43:27;102714.47;;;15.18;51.56
69836;BME280;57132;51.972;4.450;2023-05-02T11:45:53;102711.81;;;15.46;49.42
69836;BME280;57132;51.972;4.450;2023-05-02T11:48:21;102716.03;;;15.50;50.65
69836;BME280;57132;51.972;4.450;2023-05-02T11:51:04;102720.91;;;15.88;50.58
69836;BME280;57132;51.972;4.450;2023-05-02T11:53:39;102717.97;;;15.48;50.26
69836;BME280;57132;51.972;4.450;2023-05-02T11:56:05;102721.00;;;15.28;50.05
69836;BME280;57132;51.972;4.450;2023-05-02T11:58:31;102715.13;;;15.21;52.84
69836;BME280;57132;51.972;4.450;2023-05-02T12:00:58;102724.75;;;15.84;49.28
69836;BME280;57132;51.972;4.450;2023-05-02T12:03:31;102735.25;;;16.30;49.09
69836;BME280;57132;51.972;4.450;2023-05-02T12:06:07;102733.69;;;15.70;47.53
69836;BME280;57132;51.972;4.450;2023-05-02T12:08:36;102734.34;;;15.74;48.81
69836;BME280;57132;51.972;4.450;2023-05-02T12:11:01;102733.09;;;15.65;48.77
69836;BME280;57132;51.972;4.450;2023-05-02T12:13:28;102735.53;;;15.40;49.86
69836;BME280;57132;51.972;4.450;2023-05-02T12:15:54;102741.59;;;14.83;51.29
69836;BME280;57132;51.972;4.450;2023-05-02T12:18:21;102735.53;;;14.48;51.85
69836;BME280;57132;51.972;4.450;2023-05-02T12:21:07;102732.00;;;14.79;50.60
69836;BME280;57132;51.972;4.450;2023-05-02T12:23:33;102734.59;;;14.81;50.46
69836;BME280;57132;51.972;4.450;2023-05-02T12:25:58;102743.22;;;14.56;50.81
69836;BME280;57132;51.972;4.450;2023-05-02T12:28:24;102747.25;;;14.15;51.42
69836;BME280;57132;51.972;4.450;2023-05-02T12:30:50;102746.28;;;14.16;52.53
69836;BME280;57132;51.972;4.450;2023-05-02T12:33:16;102748.09;;;14.16;55.31
69836;BME280;57132;51.972;4.450;2023-05-02T12:35:42;102750.47;;;14.22;52.29
69836;BME280;57132;51.972;4.450;2023-05-02T12:38:08;102745.78;;;14.25;51.82
69836;BME280;57132;51.972;4.450;2023-05-02T12:40:34;102744.59;;;14.63;53.29
69836;BME280;57132;51.972;4.450;2023-05-02T12:43:01;102747.25;;;14.79;52.41
69836;BME280;57132;51.972;4.450;2023-05-02T12:45:32;102749.66;;;14.99;53.47
69836;BME280;57132;51.972;4.450;2023-05-02T12:48:26;102750.00;;;15.23;52.85
69836;BME280;57132;51.972;4.450;2023-05-02T12:50:53;102760.25;;;15.16;49.68
69836;BME280;57132;51.972;4.450;2023-05-02T12:53:41;102764.72;;;14.56;49.97
69836;BME280;57132;51.972;4.450;2023-05-02T12:56:09;102766.75;;;14.19;53.58
69836;BME280;57132;51.972;4.450;2023-05-02T12:58:46;102769.50;;;13.51;53.00
69836;BME280;57132;51.972;4.450;2023-05-02T13:01:13;102778.16;;;13.21;54.71
69836;BME280;57132;51.972;4.450;2023-05-02T13:03:39;102768.53;;;13.17;55.13
69836;BME280;57132;51.972;4.450;2023-05-02T13:06:05;102777.13;;;13.07;58.08
69836;BME280;57132;51.972;4.450;2023-05-02T13:08:32;102783.41;;;13.05;56.29
69836;BME280;57132;51.972;4.450;2023-05-02T13:10:58;102779.34;;;13.16;59.01